createdAt,value
2022-11-23T00:00:13.451Z,100.00
2022-11-23T00:02:46.548Z,100.00
2022-11-23T00:05:19.011Z,100.00
2022-11-23T00:07:51.710Z,100.00
2022-11-23T00:10:24.222Z,100.00
2022-11-23T00:12:56.667Z,100.00
2022-11-23T00:15:31.836Z,100.00
2022-11-23T00:18:05.018Z,100.00
2022-11-23T00:20:39.303Z,100.00
2022-11-23T00:23:11.913Z,100.00
2022-11-23T00:25:45.471Z,100.00
2022-11-23T00:28:17.919Z,100.00
2022-11-23T00:30:51.521Z,100.00
2022-11-23T00:33:24.681Z,100.00
2022-11-23T00:36:00.222Z,100.00
2022-11-23T00:38:33.014Z,100.00
2022-11-23T00:41:08.069Z,100.00
2022-11-23T00:43:41.008Z,100.00
2022-11-23T00:46:15.615Z,100.00
2022-11-23T00:48:50.404Z,100.00
2022-11-23T00:51:24.516Z,100.00
2022-11-23T00:53:57.813Z,100.00
2022-11-23T00:56:32.471Z,100.00
2022-11-23T00:59:05.228Z,100.00
2022-11-23T01:01:38.664Z,100.00
2022-11-23T01:04:11.725Z,100.00
2022-11-23T01:06:44.238Z,100.00
2022-11-23T01:09:18.554Z,100.00
2022-11-23T01:11:51.608Z,100.00
2022-11-23T01:14:24.465Z,100.00
2022-11-23T01:16:56.859Z,100.00
2022-11-23T01:19:30.410Z,100.00
2022-11-23T01:22:02.898Z,100.00
2022-11-23T01:24:35.273Z,100.00
2022-11-23T01:27:07.640Z,100.00
2022-11-23T01:29:39.974Z,100.00
2022-11-23T01:32:12.363Z,100.00
2022-11-23T01:34:45.374Z,100.00
2022-11-23T01:37:17.715Z,100.00
2022-11-23T01:39:50.207Z,100.00
2022-11-23T01:42:22.616Z,100.00
2022-11-23T01:45:35.199Z,100.00
2022-11-23T01:48:14.633Z,100.00
2022-11-23T01:50:51.391Z,100.00
2022-11-23T01:53:27.628Z,100.00
2022-11-23T01:56:02.349Z,100.00
2022-11-23T01:58:39.696Z,100.00
2022-11-23T02:01:12.827Z,100.00
2022-11-23T02:03:48.093Z,100.00
2022-11-23T02:06:22.849Z,100.00
2022-11-23T02:08:56.016Z,100.00
2022-11-23T02:11:28.725Z,100.00
2022-11-23T02:14:01.415Z,100.00
2022-11-23T02:16:37.270Z,100.00
2022-11-23T02:19:22.022Z,100.00
2022-11-23T02:21:55.958Z,100.00
2022-11-23T02:24:34.633Z,100.00
2022-11-23T02:27:07.745Z,100.00
2022-11-23T02:29:40.388Z,100.00
2022-11-23T02:32:17.709Z,100.00
2022-11-23T02:34:51.665Z,100.00
2022-11-23T02:37:25.451Z,100.00
2022-11-23T02:39:59.471Z,100.00
2022-11-23T02:42:33.168Z,100.00
2022-11-23T02:45:15.690Z,100.00
2022-11-23T02:47:48.577Z,100.00
2022-11-23T02:50:20.954Z,100.00
2022-11-23T02:52:53.285Z,100.00
2022-11-23T02:55:25.653Z,100.00
2022-11-23T02:57:58.879Z,100.00
2022-11-23T03:00:32.235Z,100.00
2022-11-23T03:03:05.544Z,100.00
2022-11-23T03:05:38.631Z,100.00
2022-11-23T03:08:11.619Z,100.00
2022-11-23T03:10:45.344Z,100.00
2022-11-23T03:13:18.387Z,100.00
2022-11-23T03:15:55.457Z,100.00
2022-11-23T03:18:28.039Z,100.00
2022-11-23T03:21:02.576Z,100.00
2022-11-23T03:23:35.552Z,100.00
2022-11-23T03:26:13.037Z,100.00
2022-11-23T03:28:56.201Z,100.00
2022-11-23T03:31:32.547Z,100.00
2022-11-23T03:34:05.742Z,100.00
2022-11-23T03:36:40.152Z,100.00
2022-11-23T03:39:12.502Z,100.00
2022-11-23T03:42:13.880Z,100.00
2022-11-23T03:44:46.877Z,100.00
2022-11-23T03:47:20.442Z,100.00
2022-11-23T03:49:52.799Z,100.00
2022-11-23T03:52:25.249Z,100.00
2022-11-23T03:54:57.750Z,100.00
2022-11-23T03:57:30.181Z,100.00
2022-11-23T04:00:04.860Z,100.00
2022-11-23T04:02:45.863Z,100.00
2022-11-23T04:05:38.117Z,100.00
2022-11-23T04:08:32.053Z,100.00
2022-11-23T04:11:05.256Z,100.00
2022-11-23T04:13:43.269Z,100.00
2022-11-23T04:16:16.380Z,100.00
2022-11-23T04:18:48.766Z,100.00
2022-11-23T04:21:22.022Z,100.00
2022-11-23T04:23:54.511Z,100.00
2022-11-23T04:26:26.917Z,100.00
2022-11-23T04:28:59.851Z,100.00
2022-11-23T04:31:33.275Z,100.00
2022-11-23T04:34:20.322Z,100.00
2022-11-23T04:36:54.835Z,100.00
2022-11-23T04:39:33.616Z,100.00
2022-11-23T04:42:35.592Z,100.00
2022-11-23T04:45:08.749Z,100.00
2022-11-23T04:47:42.305Z,100.00
2022-11-23T04:50:18.883Z,100.00
2022-11-23T04:52:56.421Z,100.00
2022-11-23T04:55:35.833Z,100.00
2022-11-23T04:58:08.204Z,100.00
2022-11-23T05:00:40.834Z,100.00
2022-11-23T05:03:15.320Z,100.00
2022-11-23T05:05:48.749Z,100.00
2022-11-23T05:08:21.176Z,99.45
2022-11-23T05:11:13.442Z,99.99
2022-11-23T05:13:46.063Z,98.98
2022-11-23T05:16:18.542Z,99.59
2022-11-23T05:18:51.557Z,99.91
2022-11-23T05:21:24.264Z,97.06
2022-11-23T05:23:57.386Z,95.22
2022-11-23T05:26:29.799Z,97.24
2022-11-23T05:29:02.180Z,98.79
2022-11-23T05:31:34.682Z,99.58
2022-11-23T05:34:07.813Z,100.00
2022-11-23T05:36:49.154Z,100.00
2022-11-23T05:39:22.535Z,100.00
2022-11-23T05:41:57.487Z,100.00
2022-11-23T05:44:50.100Z,100.00
2022-11-23T05:47:30.516Z,100.00
2022-11-23T05:50:04.190Z,100.00
2022-11-23T05:52:37.475Z,100.00
2022-11-23T05:55:09.898Z,100.00
2022-11-23T05:57:42.749Z,100.00
2022-11-23T06:00:16.198Z,100.00
2022-11-23T06:03:00.709Z,100.00
2022-11-23T06:05:34.521Z,100.00
2022-11-23T06:08:06.999Z,98.21
2022-11-23T06:10:39.415Z,98.63
2022-11-23T06:13:12.040Z,97.75
2022-11-23T06:15:44.430Z,97.63
2022-11-23T06:18:17.874Z,96.65
2022-11-23T06:20:54.987Z,96.89
2022-11-23T06:23:28.489Z,97.35
2022-11-23T06:26:03.118Z,97.80
2022-11-23T06:28:38.236Z,98.04
2022-11-23T06:31:17.273Z,99.52
2022-11-23T06:33:51.741Z,100.00
2022-11-23T06:36:24.816Z,100.00
2022-11-23T06:38:57.770Z,100.00
2022-11-23T06:41:32.647Z,100.00
2022-11-23T06:44:07.028Z,100.00
2022-11-23T06:46:45.084Z,100.00
2022-11-23T06:49:19.801Z,100.00
2022-11-23T06:52:01.677Z,100.00
2022-11-23T06:54:34.364Z,100.00
2022-11-23T06:57:07.720Z,100.00
2022-11-23T06:59:44.574Z,100.00
2022-11-23T07:02:19.225Z,100.00
2022-11-23T07:04:52.181Z,100.00
2022-11-23T07:07:26.574Z,100.00
2022-11-23T07:10:08.454Z,100.00
2022-11-23T07:12:52.211Z,100.00
2022-11-23T07:15:26.746Z,100.00
2022-11-23T07:17:59.311Z,100.00
2022-11-23T07:20:31.831Z,100.00
2022-11-23T07:23:06.722Z,99.61
2022-11-23T07:25:39.225Z,100.00
2022-11-23T07:28:13.320Z,99.83
2022-11-23T07:30:45.810Z,99.68
2022-11-23T07:33:20.574Z,99.82
2022-11-23T07:35:54.084Z,100.00
2022-11-23T07:38:27.460Z,100.00
2022-11-23T07:41:01.037Z,99.76
2022-11-23T07:44:06.201Z,99.32
2022-11-23T07:46:38.714Z,98.34
2022-11-23T07:49:11.154Z,96.49
2022-11-23T07:51:43.512Z,94.96
2022-11-23T07:54:22.171Z,93.56
2022-11-23T07:56:56.001Z,91.25
2022-11-23T07:59:28.921Z,89.08
2022-11-23T08:02:01.454Z,88.56
2022-11-23T08:04:34.218Z,88.56
2022-11-23T08:07:06.980Z,88.17
2022-11-23T08:09:40.450Z,87.25
2022-11-23T08:12:12.863Z,87.22
2022-11-23T08:14:45.231Z,85.51
2022-11-23T08:17:17.809Z,86.35
2022-11-23T08:19:50.177Z,87.12
2022-11-23T08:22:22.661Z,87.40
2022-11-23T08:24:55.891Z,88.26
2022-11-23T08:27:28.204Z,89.64
2022-11-23T08:30:00.601Z,89.71
2022-11-23T08:32:33.027Z,89.04
2022-11-23T08:35:06.411Z,88.60
2022-11-23T08:37:38.842Z,87.85
2022-11-23T08:40:13.526Z,87.69
2022-11-23T08:42:46.425Z,85.87
2022-11-23T08:45:18.861Z,85.65
2022-11-23T08:47:52.314Z,84.21
2022-11-23T08:50:24.784Z,83.67
2022-11-23T08:52:58.008Z,83.97
2022-11-23T08:55:31.084Z,84.10
2022-11-23T08:58:03.441Z,85.02
2022-11-23T09:00:36.158Z,85.21
2022-11-23T09:03:08.550Z,84.64
2022-11-23T09:05:40.940Z,84.75
2022-11-23T09:08:14.528Z,85.00
2022-11-23T09:10:47.714Z,84.04
2022-11-23T09:13:20.152Z,84.72
2022-11-23T09:15:56.447Z,84.18
2022-11-23T09:18:29.831Z,82.13
2022-11-23T09:21:03.784Z,79.47
2022-11-23T09:23:36.493Z,80.44
2022-11-23T09:26:10.054Z,78.20
2022-11-23T09:28:44.905Z,77.34
2022-11-23T09:31:17.516Z,75.69
2022-11-23T09:33:52.606Z,76.54
2022-11-23T09:36:25.594Z,75.09
2022-11-23T09:38:58.149Z,75.86
2022-11-23T09:41:51.215Z,76.21
2022-11-23T09:44:35.153Z,75.17
2022-11-23T09:47:27.917Z,73.51
2022-11-23T09:50:08.445Z,68.92
2022-11-23T09:52:45.153Z,70.62
2022-11-23T09:55:24.731Z,71.10
2022-11-23T09:58:01.247Z,67.51
2022-11-23T10:00:38.461Z,67.69
2022-11-23T10:03:15.454Z,66.02
2022-11-23T10:06:01.679Z,66.27
2022-11-23T10:08:45.172Z,66.35
2022-11-23T10:11:35.183Z,64.94
2022-11-23T10:14:23.358Z,66.14
2022-11-23T10:17:05.047Z,66.02
2022-11-23T10:19:57.220Z,63.07
2022-11-23T10:22:37.424Z,62.82
2022-11-23T10:25:15.640Z,61.79
2022-11-23T10:27:50.609Z,62.78
2022-11-23T10:30:23.682Z,62.17
2022-11-23T10:33:02.537Z,61.18
2022-11-23T10:35:37.564Z,62.16
2022-11-23T10:38:18.125Z,61.50
2022-11-23T10:41:00.922Z,59.57
2022-11-23T10:43:41.349Z,58.81
2022-11-23T10:46:27.220Z,59.53
2022-11-23T10:49:16.080Z,59.23
2022-11-23T10:51:55.894Z,60.24
2022-11-23T10:54:32.454Z,59.12
2022-11-23T10:57:25.830Z,59.62
2022-11-23T11:00:00.426Z,60.39
2022-11-23T11:02:40.540Z,59.54
2022-11-23T11:05:40.180Z,62.52
2022-11-23T11:08:18.279Z,63.90
2022-11-23T11:10:58.410Z,60.69
2022-11-23T11:13:32.720Z,62.91
2022-11-23T11:16:06.854Z,61.38
2022-11-23T11:18:39.883Z,62.64
2022-11-23T11:21:19.745Z,63.07
2022-11-23T11:23:54.100Z,64.42
2022-11-23T11:26:29.605Z,63.32
2022-11-23T11:29:04.470Z,58.89
2022-11-23T11:31:51.245Z,58.86
2022-11-23T11:34:30.138Z,55.14
2022-11-23T11:37:11.853Z,51.65
2022-11-23T11:39:49.735Z,53.98
2022-11-23T11:42:33.294Z,53.59
2022-11-23T11:45:15.489Z,54.23
2022-11-23T11:47:53.718Z,53.34
2022-11-23T11:50:32.170Z,53.89
2022-11-23T11:53:11.712Z,53.45
2022-11-23T11:55:51.750Z,50.93
2022-11-23T11:58:25.597Z,51.63
2022-11-23T12:01:08.595Z,51.28
2022-11-23T12:03:46.966Z,52.40
2022-11-23T12:06:26.906Z,54.61
2022-11-23T12:09:03.467Z,55.19
2022-11-23T12:11:36.646Z,57.30
2022-11-23T12:14:12.872Z,58.92
2022-11-23T12:17:16.834Z,59.09
2022-11-23T12:19:56.668Z,60.60
2022-11-23T12:22:44.001Z,57.72
2022-11-23T12:25:24.424Z,57.99
2022-11-23T12:28:05.917Z,58.74
2022-11-23T12:30:48.436Z,58.01
2022-11-23T12:33:54.974Z,58.84
2022-11-23T12:36:52.233Z,60.01
2022-11-23T12:39:44.937Z,59.57
2022-11-23T12:42:23.591Z,60.36
2022-11-23T12:45:35.027Z,59.50
2022-11-23T12:48:40.435Z,60.18
2022-11-23T12:51:23.307Z,61.38
2022-11-23T12:54:10.465Z,60.37
2022-11-23T12:57:00.033Z,58.57
2022-11-23T12:59:44.040Z,59.61
2022-11-23T13:02:55.758Z,60.24
2022-11-23T13:06:04.132Z,60.15
2022-11-23T13:08:59.334Z,58.51
2022-11-23T13:11:47.644Z,58.44
2022-11-23T13:14:27.592Z,58.91
2022-11-23T13:17:15.249Z,59.83
2022-11-23T13:20:01.187Z,60.02
2022-11-23T13:22:34.753Z,61.26
2022-11-23T13:25:23.462Z,61.14
2022-11-23T13:28:03.590Z,62.00
2022-11-23T13:31:07.317Z,62.53
2022-11-23T13:33:37.697Z,62.45
2022-11-23T13:36:16.876Z,62.38
2022-11-23T13:38:52.160Z,62.66
2022-11-23T13:41:59.845Z,63.26
2022-11-23T13:44:33.388Z,60.90
2022-11-23T13:47:18.750Z,61.77
2022-11-23T13:49:52.452Z,58.29
2022-11-23T13:52:30.513Z,59.23
2022-11-23T13:55:17.268Z,58.45
2022-11-23T13:58:22.613Z,57.05
2022-11-23T14:00:57.019Z,57.87
2022-11-23T14:03:51.535Z,58.28
2022-11-23T14:06:41.726Z,57.53
2022-11-23T14:09:21.959Z,56.88
2022-11-23T14:12:02.317Z,56.81
2022-11-23T14:14:46.921Z,56.71
2022-11-23T14:17:52.931Z,58.11
2022-11-23T14:20:35.900Z,57.79
2022-11-23T14:24:01.716Z,58.73
2022-11-23T14:26:41.383Z,59.35
2022-11-23T14:29:27.785Z,60.43
2022-11-23T14:32:31.665Z,61.53
2022-11-23T14:35:22.545Z,62.90
2022-11-23T14:38:30.305Z,63.41
2022-11-23T14:41:07.844Z,63.23
2022-11-23T14:43:42.498Z,64.17
2022-11-23T14:46:18.384Z,64.43
2022-11-23T14:48:52.278Z,64.23
2022-11-23T14:51:26.218Z,64.67
2022-11-23T14:54:01.374Z,64.87
2022-11-23T14:56:36.787Z,65.58
2022-11-23T14:59:17.904Z,66.59
2022-11-23T15:01:52.931Z,65.71
2022-11-23T15:04:33.388Z,66.43
2022-11-23T15:07:12.999Z,66.65
2022-11-23T15:09:51.426Z,66.98
2022-11-23T15:12:25.820Z,67.58
2022-11-23T15:14:58.387Z,67.80
2022-11-23T15:17:31.001Z,68.10
2022-11-23T15:20:04.156Z,67.58
2022-11-23T15:22:37.064Z,67.57
2022-11-23T15:25:15.567Z,67.67
2022-11-23T15:27:48.507Z,67.27
2022-11-23T15:30:27.101Z,67.37
2022-11-23T15:33:03.101Z,67.81
2022-11-23T15:35:37.603Z,68.08
2022-11-23T15:38:14.942Z,68.34
2022-11-23T15:40:50.905Z,67.74
2022-11-23T15:43:23.334Z,68.32
2022-11-23T15:46:03.821Z,68.38
2022-11-23T15:48:36.440Z,67.84
2022-11-23T15:51:24.421Z,68.29
2022-11-23T15:53:59.725Z,68.87
2022-11-23T15:56:35.698Z,67.95
2022-11-23T15:59:28.121Z,68.24
2022-11-23T16:02:02.497Z,68.21
2022-11-23T16:04:38.755Z,67.56
2022-11-23T16:07:20.221Z,67.40
2022-11-23T16:10:11.995Z,67.25
2022-11-23T16:12:49.602Z,67.11
2022-11-23T16:15:40.768Z,67.53
2022-11-23T16:18:21.806Z,67.97
2022-11-23T16:20:57.872Z,66.93
2022-11-23T16:23:42.459Z,67.31
2022-11-23T16:26:15.747Z,67.14
2022-11-23T16:28:50.999Z,67.11
2022-11-23T16:31:28.311Z,67.51
2022-11-23T16:34:00.758Z,67.90
2022-11-23T16:36:33.142Z,66.91
2022-11-23T16:39:06.019Z,66.80
2022-11-23T16:41:38.625Z,67.09
2022-11-23T16:44:11.651Z,66.83
2022-11-23T16:46:46.029Z,67.01
2022-11-23T16:49:19.886Z,67.35
2022-11-23T16:51:57.065Z,66.71
2022-11-23T16:54:29.919Z,66.49
2022-11-23T16:57:03.959Z,67.31
2022-11-23T16:59:36.972Z,67.38
2022-11-23T17:02:14.093Z,67.28
2022-11-23T17:04:46.839Z,66.66
2022-11-23T17:07:19.323Z,67.37
2022-11-23T17:09:51.831Z,67.15
2022-11-23T17:12:24.266Z,67.93
2022-11-23T17:14:59.321Z,68.03
2022-11-23T17:17:31.899Z,68.10
2022-11-23T17:20:05.039Z,68.26
2022-11-23T17:22:37.524Z,67.70
2022-11-23T17:25:14.966Z,68.50
2022-11-23T17:27:47.915Z,69.12
2022-11-23T17:30:21.900Z,69.01
2022-11-23T17:32:54.496Z,70.00
2022-11-23T17:35:27.220Z,69.79
2022-11-23T17:37:59.647Z,69.19
2022-11-23T17:40:32.094Z,70.92
2022-11-23T17:43:04.464Z,70.53
2022-11-23T17:45:37.979Z,70.78
2022-11-23T17:48:12.298Z,70.21
2022-11-23T17:50:46.887Z,70.87
2022-11-23T17:53:24.112Z,71.03
2022-11-23T17:55:57.786Z,71.61
2022-11-23T17:58:30.170Z,71.71
2022-11-23T18:01:03.612Z,71.70
2022-11-23T18:03:36.133Z,71.29
2022-11-23T18:06:12.709Z,71.10
2022-11-23T18:08:46.513Z,70.80
2022-11-23T18:11:19.897Z,70.15
2022-11-23T18:13:52.748Z,69.98
2022-11-23T18:16:25.813Z,70.56
2022-11-23T18:18:58.320Z,70.27
2022-11-23T18:21:30.669Z,69.48
2022-11-23T18:24:04.928Z,69.03
2022-11-23T18:26:37.430Z,69.43
2022-11-23T18:29:15.561Z,69.27
2022-11-23T18:31:49.997Z,69.60
2022-11-23T18:34:22.535Z,69.56
2022-11-23T18:36:54.901Z,69.16
2022-11-23T18:39:27.337Z,69.14
2022-11-23T18:42:05.298Z,69.31
2022-11-23T18:44:38.250Z,69.51
2022-11-23T18:47:11.219Z,69.91
2022-11-23T18:49:43.577Z,69.55
2022-11-23T18:52:16.489Z,69.81
2022-11-23T18:54:48.862Z,69.64
2022-11-23T18:57:21.304Z,69.92
2022-11-23T18:59:58.251Z,69.92
2022-11-23T19:02:31.818Z,70.12
2022-11-23T19:05:04.689Z,70.33
2022-11-23T19:07:37.517Z,71.50
2022-11-23T19:10:10.244Z,71.67
2022-11-23T19:12:43.241Z,72.06
2022-11-23T19:15:15.655Z,71.65
2022-11-23T19:17:48.667Z,72.11
2022-11-23T19:20:22.874Z,72.60
2022-11-23T19:22:55.600Z,72.59
2022-11-23T19:25:29.035Z,73.45
2022-11-23T19:28:01.388Z,73.78
2022-11-23T19:30:33.864Z,74.03
2022-11-23T19:33:06.897Z,74.16
2022-11-23T19:35:39.275Z,73.35
2022-11-23T19:38:11.653Z,72.38
2022-11-23T19:40:44.069Z,72.18
2022-11-23T19:43:16.413Z,73.49
2022-11-23T19:45:53.450Z,72.95
2022-11-23T19:48:26.963Z,73.16
2022-11-23T19:51:01.678Z,73.27
2022-11-23T19:53:35.823Z,73.43
2022-11-23T19:56:11.927Z,73.33
2022-11-23T19:58:44.420Z,74.35
2022-11-23T20:01:19.837Z,73.92
2022-11-23T20:03:54.723Z,73.35
2022-11-23T20:06:28.588Z,72.70
2022-11-23T20:09:03.095Z,73.30
2022-11-23T20:11:37.744Z,74.00
2022-11-23T20:14:11.232Z,73.65
2022-11-23T20:16:43.713Z,74.14
2022-11-23T20:19:16.838Z,74.13
2022-11-23T20:21:49.307Z,74.23
2022-11-23T20:24:21.644Z,74.67
2022-11-23T20:26:54.045Z,74.26
2022-11-23T20:29:27.209Z,75.29
2022-11-23T20:31:59.759Z,74.38
2022-11-23T20:34:32.991Z,74.44
2022-11-23T20:37:05.750Z,74.83
2022-11-23T20:39:38.075Z,74.80
2022-11-23T20:42:10.434Z,74.74
2022-11-23T20:44:42.785Z,73.46
2022-11-23T20:47:15.166Z,73.68
2022-11-23T20:49:48.205Z,73.63
2022-11-23T20:52:20.674Z,73.78
2022-11-23T20:54:53.092Z,73.84
2022-11-23T20:57:25.606Z,72.84
2022-11-23T20:59:58.125Z,73.43
2022-11-23T21:02:30.525Z,73.35
2022-11-23T21:05:04.153Z,72.85
2022-11-23T21:07:36.687Z,72.65
2022-11-23T21:10:09.478Z,72.14
2022-11-23T21:12:59.697Z,71.93
2022-11-23T21:15:32.070Z,71.40
2022-11-23T21:18:04.459Z,72.32
2022-11-23T21:20:37.566Z,72.91
2022-11-23T21:23:10.158Z,72.99
2022-11-23T21:25:42.544Z,73.43
2022-11-23T21:28:15.038Z,73.49
2022-11-23T21:30:47.391Z,74.53
2022-11-23T21:33:19.748Z,74.63
2022-11-23T21:35:52.727Z,75.78
2022-11-23T21:38:30.494Z,75.91
2022-11-23T21:43:50.726Z,75.77
2022-11-23T21:46:23.843Z,75.34
2022-11-23T21:48:58.096Z,76.19
2022-11-23T21:51:31.567Z,75.87
2022-11-23T21:54:05.820Z,76.03
2022-11-23T21:56:38.218Z,75.44
2022-11-23T21:59:10.915Z,75.87
2022-11-23T22:01:43.270Z,76.08
2022-11-23T22:04:16.321Z,75.97
2022-11-23T22:06:49.308Z,76.07
2022-11-23T22:09:21.633Z,75.33
2022-11-23T22:11:53.966Z,75.09
2022-11-23T22:14:26.363Z,74.65
2022-11-23T22:16:59.861Z,74.40
2022-11-23T22:19:32.222Z,74.95
2022-11-23T22:22:06.653Z,75.17
2022-11-23T22:24:39.399Z,75.46
2022-11-23T22:27:11.736Z,75.01
2022-11-23T22:29:44.101Z,73.91
2022-11-23T22:32:16.419Z,74.89
2022-11-23T22:34:49.114Z,75.22
2022-11-23T22:37:22.094Z,75.64
2022-11-23T22:39:54.485Z,75.30
2022-11-23T22:42:26.854Z,75.33
2022-11-23T22:44:59.178Z,74.71
2022-11-23T22:47:32.400Z,75.83
2022-11-23T22:50:05.915Z,75.50
2022-11-23T22:52:38.898Z,75.36
2022-11-23T22:55:11.257Z,75.27
2022-11-23T22:57:43.645Z,75.89
2022-11-23T23:00:16.125Z,74.90
2022-11-23T23:02:48.609Z,75.12
2022-11-23T23:05:21.110Z,75.48
2022-11-23T23:07:55.104Z,75.10
2022-11-23T23:10:28.922Z,75.08
2022-11-23T23:13:01.410Z,75.05
2022-11-23T23:15:33.755Z,75.22
2022-11-23T23:18:06.514Z,74.87
2022-11-23T23:20:38.893Z,74.77
2022-11-23T23:23:11.914Z,74.79
2022-11-23T23:25:44.445Z,75.22
2022-11-23T23:28:16.753Z,75.48
2022-11-23T23:30:49.134Z,75.30
2022-11-23T23:33:21.459Z,75.22
2022-11-23T23:35:53.830Z,75.22
2022-11-23T23:38:26.879Z,75.53
2022-11-23T23:40:59.434Z,75.69
2022-11-23T23:43:32.159Z,76.10
2022-11-23T23:46:06.717Z,76.41
2022-11-23T23:48:40.304Z,76.69
2022-11-23T23:51:17.810Z,76.53
2022-11-23T23:53:52.050Z,76.89
2022-11-23T23:56:26.180Z,77.85
2022-11-23T23:58:59.477Z,77.53
